Metaline Falls, WA (99153)

11:19 PM PDT on August 22, 2014 (GMT -0700)
Bodie Mountain | Change Station
CLOSE
Current Station
Personal Weather Station
Location: Onion Creek, WA
Elevation: 3250 ft
Nearby Weather Stations

Elev 3250 ft 48.83 °N, 117.77 °W | Updated 6 minutes ago

Overcast
Overcast
57.2 °F
Feels Like 57.2 °F
N
0.0
Wind Variable Wind from ESE

Today
High -- | Low -- °F
--% Chance of Precip.
Yesterday
High -- | Low -- °F
Precip. -- in
5:52 AM 7:51 PM
Waning Crescent, 5% visible
Pressure 30.18 in
Visibility 10.0 miles
Clouds Overcast 8500 ft
Dew Point 39 °F
Humidity 52%
Rainfall 0.01 in
Snow Depth 0 in
UV 0 out of 12
Pollen 6.60 out of 12
PM2.5 Good
Flu Activity Not available.
METAR K65S 230555Z AUTO 00000KT 10SM OVC085 14/08 A3018 RMK AO2

More Conditions Fewer Conditions

Pressure 30.18 in
Visibility 10.0 miles
Clouds Overcast 8500 ft
Dew Point 39 °F
Humidity 52%
Rainfall 0.01 in
Snow Depth 0 in
UV 0 out of 12
Pollen 6.60 out of 12
PM2.5 Good
Flu Activity Not available.
METAR K65S 230555Z AUTO 00000KT 10SM OVC085 14/08 A3018 RMK AO2

More Conditions Fewer Conditions

10-Day Weather Forecast

Almanac

Astronomy

Aug. 22, 2014 Rise Set
Actual Time 5:52 AM PDT 7:51 PM PDT
Civil Twilight 5:18 AM PDT 8:25 PM PDT
Nautical Twilight 4:36 AM PDT 9:06 PM PDT
Astronomical Twilight 3:49 AM PDT 9:53 PM PDT
Moon 3:12 AM PDT (8/22) 6:06 PM PDT (8/22)
Length of Visible Light 15h 06m
Length of Day
13h 59m
Tomorrow will be 3m 21s shorter.
Waning Crescent, 5% of the Moon is Illuminated
Aug 23
Waning Crescent
Aug 25
New
Sep 2
First Quarter
Sep 8
Full
Sep 15
Last Quarter

Community

WunderPhotos

Upload Photos

1,746,371 photos uploaded!

WunderBlogs® & News

By Dr. Jeff Masters
Director of Meteorology, Weather Underground
By Kari Strenfel
Meteorologist, Weather Underground
By Christopher C. Burt
Weather Historian, Weather Underground
August 23, 2014
August 23, 2014
August 22, 2014

Nearby

Air Quality

  Air Quality AQ Index Pollutant
Yesterday Good
OZONE
Yesterday Good
PM10
Current Good
PM2.5
Friday Good
PM10
Friday Good
OZONE
Saturday Good
PM10
Saturday Good
OZONE
Sunday Good
PM10
Sunday Good
OZONE
Monday Good
PM10
Monday Good
OZONE

Snow Depth

Station Depth Elevation
Bunchgrass Meadow 0 in 5000 ft
Sentinel Butte 0 in 4920 ft
Quartz Peak 1 in 4700 ft
Moses Mountain 1 in 5300 ft
Harts Pass 0 in 6500 ft

Earthquake Activity

City Distance Mag. Time & Date
No recent earthquake activity has been reported nearby.
Minimum magnitude displayed is 2.5.

Coastal Water Temperatures

Place Temperature
No Stations Reporting

Nearby Weather Stations